Time;durP1;ratioP1;P1;durP2;ratioP2;P2;SDS_P1;SDS_P2;PMS_P1;PMS_P2;Temp;Humidity;BMP_temperature;BMP_pressure;BME280_temperature;BME280_humidity;BME280_pressure;Samples;Min_cycle;Max_cycle;Signal;HPM_P1;HPM_P2
2024/02/16 00:02:20;;;;;;;5.43;3.25;;;;;;;9.73;100.00;100931.13;5034087;28;20032;-80
2024/02/16 00:04:45;;;;;;;4.95;3.30;;;;;;;9.71;100.00;100936.56;5052203;28;20028;-79
2024/02/16 00:07:10;;;;;;;5.88;3.17;;;;;;;9.69;100.00;100935.88;5050460;28;20067;-79
2024/02/16 00:09:36;;;;;;;5.38;3.05;;;;;;;9.67;100.00;100939.63;5050626;28;20033;-80
2024/02/16 00:12:01;;;;;;;7.22;3.22;;;;;;;9.67;100.00;100945.81;5033876;28;20135;-80
2024/02/16 00:14:26;;;;;;;4.75;3.15;;;;;;;9.63;100.00;100941.72;5051752;28;20097;-79
2024/02/16 00:16:52;;;;;;;7.32;3.42;;;;;;;9.59;100.00;100942.94;5052145;28;20399;-80
2024/02/16 00:19:17;;;;;;;5.97;3.28;;;;;;;9.52;100.00;100939.13;5052635;28;20025;-80
2024/02/16 00:21:42;;;;;;;6.25;3.40;;;;;;;9.46;100.00;100937.81;5051651;28;20040;-80
2024/02/16 00:24:08;;;;;;;6.50;3.08;;;;;;;9.44;100.00;100937.13;5051799;28;20040;-80
2024/02/16 00:26:34;;;;;;;4.43;3.08;;;;;;;9.43;100.00;100927.44;5050186;28;20060;-79
2024/02/16 00:29:05;;;;;;;5.93;3.30;;;;;;;9.40;100.00;100930.38;5051970;28;20025;-79
2024/02/16 00:31:31;;;;;;;6.05;3.25;;;;;;;9.33;100.00;100927.41;5051480;28;20029;-79
2024/02/16 00:33:56;;;;;;;7.90;3.30;;;;;;;9.28;100.00;100929.59;5051058;28;20060;-80
2024/02/16 00:36:21;;;;;;;4.78;3.58;;;;;;;9.25;100.00;100935.16;5050219;28;20359;-80
2024/02/16 00:38:47;;;;;;;7.97;3.33;;;;;;;9.26;100.00;100920.91;5050182;28;20029;-79
2024/02/16 00:41:23;;;;;;;6.88;3.33;;;;;;;9.32;100.00;100922.22;5050131;28;20029;-79
2024/02/16 00:43:50;;;;;;;5.15;3.08;;;;;;;9.39;100.00;100927.84;5051484;28;20056;-79
2024/02/16 00:46:16;;;;;;;5.45;3.35;;;;;;;9.40;100.00;100919.75;5049927;28;20033;-79
2024/02/16 00:48:41;;;;;;;8.13;3.15;;;;;;;9.39;100.00;100919.88;5049931;28;20347;-79
2024/02/16 00:51:06;;;;;;;8.57;2.78;;;;;;;9.34;100.00;100917.59;5051486;28;20434;-79
2024/02/16 00:53:32;;;;;;;8.85;3.30;;;;;;;9.27;100.00;100917.31;5033174;28;20051;-79
2024/02/16 00:55:57;;;;;;;5.90;3.10;;;;;;;9.24;100.00;100916.69;5050206;28;20098;-80
2024/02/16 00:58:22;;;;;;;8.82;2.97;;;;;;;9.17;100.00;100909.25;5051455;28;20029;-79
2024/02/16 01:00:48;;;;;;;6.97;3.05;;;;;;;9.11;100.00;100916.91;5050283;28;20454;-80
2024/02/16 01:03:13;;;;;;;7.00;3.13;;;;;;;9.04;100.00;100907.75;5049628;28;20408;-80
2024/02/16 01:05:40;;;;;;;5.70;2.85;;;;;;;8.98;100.00;100915.22;5051388;28;20501;-80
2024/02/16 01:08:06;;;;;;;8.50;3.28;;;;;;;8.96;100.00;100922.50;5050999;28;20403;-80
2024/02/16 01:10:32;;;;;;;9.38;3.10;;;;;;;8.97;100.00;100932.16;5049589;28;20052;-80
2024/02/16 01:12:57;;;;;;;6.68;3.33;;;;;;;8.97;100.00;100925.97;5049507;28;20061;-79
2024/02/16 01:15:22;;;;;;;5.80;3.13;;;;;;;8.93;100.00;100916.59;5050847;28;20028;-80
2024/02/16 01:17:48;;;;;;;6.90;3.40;;;;;;;8.88;100.00;100903.69;5049558;28;20032;-80
2024/02/16 01:20:13;;;;;;;7.55;3.67;;;;;;;8.80;100.00;100891.06;5050796;28;20032;-80
2024/02/16 01:22:40;;;;;;;9.23;3.72;;;;;;;8.73;100.00;100887.25;5050794;28;20527;-80
2024/02/16 01:25:05;;;;;;;8.07;3.40;;;;;;;8.63;100.00;100892.47;5051038;28;20032;-80
2024/02/16 01:27:31;;;;;;;6.82;3.33;;;;;;;8.57;100.00;100902.72;5049604;28;20036;-80
2024/02/16 01:29:57;;;;;;;7.53;3.40;;;;;;;8.45;100.00;100886.84;5050807;28;20021;-80
2024/02/16 01:32:22;;;;;;;7.18;3.10;;;;;;;8.40;100.00;100893.44;5049314;28;20126;-80
2024/02/16 01:34:49;;;;;;;4.60;3.40;;;;;;;8.33;100.00;100877.19;5049411;28;20123;-80
2024/02/16 01:37:15;;;;;;;6.85;3.72;;;;;;;8.29;100.00;100895.16;5050828;28;20036;-80
2024/02/16 01:39:40;;;;;;;5.68;3.65;;;;;;;8.28;100.00;100911.19;5050946;28;20363;-80
2024/02/16 01:42:06;;;;;;;5.60;3.70;;;;;;;8.30;100.00;100911.91;5050521;28;20031;-80
2024/02/16 01:44:31;;;;;;;8.07;3.42;;;;;;;8.26;100.00;100913.94;5049552;28;20041;-80
2024/02/16 01:46:57;;;;;;;5.53;3.40;;;;;;;8.26;100.00;100908.66;5050810;28;20056;-79
2024/02/16 01:49:22;;;;;;;5.93;3.45;;;;;;;8.28;100.00;100904.09;5050869;28;20029;-80
2024/02/16 01:51:48;;;;;;;6.43;3.78;;;;;;;8.27;100.00;100878.53;5050736;28;20085;-80
2024/02/16 01:54:17;;;;;;;5.55;3.25;;;;;;;8.27;100.00;100888.28;5049111;28;20025;-80
2024/02/16 01:56:43;;;;;;;7.32;3.58;;;;;;;8.24;100.00;100885.88;5050473;28;20144;-80
2024/02/16 01:59:09;;;;;;;7.53;3.92;;;;;;;8.20;100.00;100885.28;5050464;28;20028;-80
2024/02/16 02:01:34;;;;;;;6.13;3.80;;;;;;;8.14;100.00;100890.25;5050088;28;20029;-80
2024/02/16 02:04:00;;;;;;;4.97;3.60;;;;;;;8.12;100.00;100892.97;5048767;28;20029;-80
2024/02/16 02:06:25;;;;;;;6.00;3.38;;;;;;;8.12;100.00;100888.56;5050093;28;20029;-80
2024/02/16 02:08:51;;;;;;;5.90;3.88;;;;;;;8.15;100.00;100890.13;5051046;28;20454;-80
2024/02/16 02:11:17;;;;;;;6.72;3.75;;;;;;;8.16;100.00;100896.25;5050877;28;20475;-80
2024/02/16 02:13:42;;;;;;;6.57;4.10;;;;;;;8.18;100.00;100896.97;5054137;28;20033;-80
2024/02/16 02:16:10;;;;;;;7.38;3.83;;;;;;;8.23;100.00;100905.41;5053749;28;20036;-79
2024/02/16 02:18:35;;;;;;;8.23;4.32;;;;;;;8.21;100.00;100902.03;5054202;28;20104;-80
2024/02/16 02:21:00;;;;;;;7.45;3.88;;;;;;;8.18;100.00;100899.63;5054391;28;20025;-80
2024/02/16 02:23:26;;;;;;;5.65;4.10;;;;;;;8.12;100.00;100899.16;5053456;28;20500;-80
2024/02/16 02:25:51;;;;;;;10.05;4.28;;;;;;;8.10;100.00;100892.28;5053855;28;20404;-80
2024/02/16 02:28:17;;;;;;;7.07;3.90;;;;;;;8.08;100.00;100889.75;5053618;28;20108;-80
2024/02/16 02:30:45;;;;;;;7.78;4.13;;;;;;;8.05;100.00;100887.34;5054173;28;20037;-80
2024/02/16 02:33:12;;;;;;;7.28;4.28;;;;;;;8.04;100.00;100887.47;5053533;28;20047;-80
2024/02/16 02:35:38;;;;;;;6.25;3.78;;;;;;;8.02;100.00;100892.88;5053890;28;20040;-80
2024/02/16 02:38:04;;;;;;;8.55;3.55;;;;;;;7.97;100.00;100879.16;5053438;28;20029;-80
2024/02/16 02:40:30;;;;;;;6.53;3.95;;;;;;;7.93;100.00;100890.97;5053586;28;20056;-80
2024/02/16 02:42:55;;;;;;;6.38;4.20;;;;;;;7.87;100.00;100881.69;5053301;28;20060;-80
2024/02/16 02:45:20;;;;;;;6.97;3.75;;;;;;;7.81;100.00;100878.66;5052256;28;20072;-80
2024/02/16 02:47:46;;;;;;;5.22;3.72;;;;;;;7.75;100.00;100883.50;5051574;28;20484;-79
2024/02/16 02:50:12;;;;;;;7.28;4.35;;;;;;;7.72;100.00;100889.03;5053057;28;20158;-79
2024/02/16 02:52:37;;;;;;;6.45;3.72;;;;;;;7.74;100.00;100887.09;5053336;28;20158;-79
2024/02/16 02:55:03;;;;;;;5.82;3.90;;;;;;;7.72;100.00;100872.31;5053332;28;20426;-79
2024/02/16 02:57:29;;;;;;;9.68;5.80;;;;;;;7.71;100.00;100875.91;5053271;28;20112;-79
2024/02/16 03:00:04;;;;;;;8.68;4.13;;;;;;;7.74;100.00;100873.84;5053334;28;20029;-79
2024/02/16 03:02:29;;;;;;;6.28;4.05;;;;;;;7.75;100.00;100875.53;5052890;28;20033;-79
2024/02/16 03:04:54;;;;;;;5.93;4.38;;;;;;;7.75;100.00;100869.41;5053734;28;20025;-80
2024/02/16 03:07:20;;;;;;;7.57;4.35;;;;;;;7.77;100.00;100878.91;5051962;28;20205;-79
2024/02/16 03:09:46;;;;;;;7.63;4.15;;;;;;;7.81;100.00;100862.78;5053229;28;20033;-79
2024/02/16 03:12:11;;;;;;;6.35;3.63;;;;;;;7.87;100.00;100859.66;5053399;28;20025;-79
2024/02/16 03:14:37;;;;;;;7.70;4.07;;;;;;;7.92;100.00;100857.47;5053644;28;20075;-79
2024/02/16 03:17:03;;;;;;;6.15;4.18;;;;;;;7.96;100.00;100858.94;5053156;28;20519;-79
2024/02/16 03:19:29;;;;;;;5.80;3.85;;;;;;;8.00;100.00;100859.53;5053385;28;20040;-80
2024/02/16 03:21:54;;;;;;;6.80;3.80;;;;;;;8.02;100.00;100861.09;5053111;28;20028;-79
2024/02/16 03:24:20;;;;;;;7.20;4.03;;;;;;;8.01;100.00;100854.09;5033980;28;20107;-78
2024/02/16 03:26:47;;;;;;;7.28;4.15;;;;;;;8.02;100.00;100865.56;5052588;28;20479;-79
2024/02/16 03:29:12;;;;;;;5.78;3.97;;;;;;;8.06;100.00;100866.97;5052562;28;20103;-79
2024/02/16 03:31:38;;;;;;;11.32;4.50;;;;;;;8.11;100.00;100872.78;5052677;28;20462;-79
2024/02/16 03:34:03;;;;;;;6.90;3.78;;;;;;;8.14;100.00;100869.88;5050988;28;20422;-80
2024/02/16 03:36:30;;;;;;;6.68;4.22;;;;;;;8.23;100.00;100863.00;5052640;28;20041;-80
2024/02/16 03:38:56;;;;;;;8.45;3.83;;;;;;;8.28;100.00;100856.38;5052043;28;20032;-80
2024/02/16 03:41:23;;;;;;;7.75;4.18;;;;;;;8.31;100.00;100855.25;5052776;28;20032;-79
2024/02/16 03:43:48;;;;;;;8.00;4.68;;;;;;;8.30;100.00;100851.78;5052430;28;20021;-80
2024/02/16 03:46:14;;;;;;;9.35;4.25;;;;;;;8.26;100.00;100844.19;5051996;28;20025;-80
2024/02/16 03:48:40;;;;;;;5.05;4.13;;;;;;;8.23;100.00;100845.28;5052580;28;20083;-80
2024/02/16 03:51:06;;;;;;;7.80;3.78;;;;;;;8.18;100.00;100842.16;5052411;28;20150;-80
2024/02/16 03:53:32;;;;;;;7.47;4.00;;;;;;;8.16;100.00;100848.56;5052318;28;20500;-80
2024/02/16 03:55:57;;;;;;;6.50;4.22;;;;;;;8.11;100.00;100848.91;5052471;28;20112;-80
2024/02/16 03:58:24;;;;;;;7.60;4.22;;;;;;;8.06;100.00;100854.59;5052368;28;20025;-80
2024/02/16 04:00:49;;;;;;;5.43;3.85;;;;;;;7.99;100.00;100866.63;5052155;28;20039;-80
2024/02/16 04:03:15;;;;;;;6.40;4.13;;;;;;;7.93;100.00;100861.81;5052258;28;20362;-79
2024/02/16 04:05:41;;;;;;;7.18;3.88;;;;;;;7.89;100.00;100858.56;5052029;28;20103;-80
2024/02/16 04:08:07;;;;;;;7.00;4.20;;;;;;;7.88;100.00;100863.97;5051002;28;20033;-79
2024/02/16 04:10:35;;;;;;;7.88;4.50;;;;;;;7.82;100.00;100854.69;5052046;28;20033;-79
2024/02/16 04:13:01;;;;;;;6.65;4.32;;;;;;;7.79;100.00;100857.59;5051986;28;20021;-79
2024/02/16 04:15:26;;;;;;;6.30;3.90;;;;;;;7.74;100.00;100865.91;5051737;28;20377;-79
2024/02/16 04:17:52;;;;;;;8.45;4.25;;;;;;;7.70;100.00;100869.78;5051740;28;20029;-79
2024/02/16 04:20:19;;;;;;;7.57;4.35;;;;;;;7.70;100.00;100864.47;5051773;28;20029;-80
2024/02/16 04:22:44;;;;;;;8.23;4.38;;;;;;;7.69;100.00;100860.13;5051878;28;20033;-80
2024/02/16 04:25:09;;;;;;;8.13;4.72;;;;;;;7.68;100.00;100861.09;5051649;28;20085;-80
2024/02/16 04:27:36;;;;;;;10.07;5.22;;;;;;;7.66;100.00;100860.38;5051627;28;20095;-80
2024/02/16 04:30:02;;;;;;;6.60;4.50;;;;;;;7.64;100.00;100870.22;5051725;28;20049;-80
2024/02/16 04:32:27;;;;;;;7.32;4.68;;;;;;;7.62;100.00;100866.88;5050248;28;20049;-79
2024/02/16 04:34:53;;;;;;;9.43;4.88;;;;;;;7.62;100.00;100866.88;5049557;28;20037;-80
2024/02/16 04:37:18;;;;;;;12.80;4.72;;;;;;;7.64;100.00;100867.59;5050089;28;20120;-80
2024/02/16 04:39:44;;;;;;;7.70;4.35;;;;;;;7.68;100.00;100871.69;5050276;28;20139;-80
2024/02/16 04:42:10;;;;;;;9.40;5.03;;;;;;;7.69;100.00;100869.91;5051382;28;20396;-80
2024/02/16 04:44:39;;;;;;;8.43;4.78;;;;;;;7.67;100.00;100869.16;5051236;28;20059;-79
2024/02/16 04:47:05;;;;;;;8.85;4.55;;;;;;;7.64;100.00;100862.28;5051340;28;20029;-79
2024/02/16 04:49:30;;;;;;;9.15;3.95;;;;;;;7.61;100.00;100867.00;5051638;28;20028;-79
2024/02/16 04:51:56;;;;;;;8.23;4.53;;;;;;;7.59;100.00;100870.59;5050856;28;20068;-79
2024/02/16 04:54:22;;;;;;;8.15;4.50;;;;;;;7.58;100.00;100866.28;5049403;28;20112;-79
2024/02/16 04:56:48;;;;;;;8.27;4.18;;;;;;;7.55;100.00;100873.59;5051061;28;20123;-80
2024/02/16 04:59:14;;;;;;;7.95;4.60;;;;;;;7.57;100.00;100866.41;5033206;28;20079;-77
2024/02/16 05:01:39;;;;;;;7.03;4.47;;;;;;;7.58;100.00;100863.63;5050895;28;20179;-80
2024/02/16 05:04:05;;;;;;;8.30;4.65;;;;;;;7.58;100.00;100863.63;5049585;28;20493;-79
2024/02/16 05:06:30;;;;;;;8.57;4.32;;;;;;;7.57;100.00;100867.22;5050960;28;20040;-78
2024/02/16 05:08:59;;;;;;;6.95;4.70;;;;;;;7.58;100.00;100866.28;5050792;28;20069;-78
2024/02/16 05:11:24;;;;;;;9.35;5.20;;;;;;;7.60;100.00;100871.44;5049461;28;20025;-78
2024/02/16 05:13:50;;;;;;;13.48;5.43;;;;;;;7.66;100.00;100875.41;5049341;28;20459;-78
2024/02/16 05:16:16;;;;;;;11.23;4.55;;;;;;;7.68;100.00;100871.69;5050758;28;20036;-78
2024/02/16 05:18:42;;;;;;;9.45;4.88;;;;;;;7.73;100.00;100872.19;5050592;28;20081;-79
2024/02/16 05:21:07;;;;;;;12.45;5.38;;;;;;;7.87;100.00;100863.16;5050714;28;20025;-78
2024/02/16 05:23:33;;;;;;;9.60;5.10;;;;;;;7.99;100.00;100871.09;5051103;28;20033;-78
2024/02/16 05:25:58;;;;;;;10.25;4.97;;;;;;;8.05;100.00;100875.91;5050697;28;20065;-78
2024/02/16 05:28:24;;;;;;;21.35;5.45;;;;;;;8.13;100.00;100876.13;5049414;28;20036;-78
2024/02/16 05:30:49;;;;;;;7.70;5.07;;;;;;;8.28;100.00;100876.72;5050699;28;20039;-78
2024/02/16 05:33:14;;;;;;;6.32;4.80;;;;;;;8.38;100.00;100876.81;5049090;28;20145;-78
2024/02/16 05:35:40;;;;;;;12.95;5.50;;;;;;;8.49;100.00;100878.63;5051240;28;20142;-78
2024/02/16 05:38:10;;;;;;;8.75;4.93;;;;;;;8.64;100.00;100880.03;5049497;28;20127;-78
2024/02/16 05:40:53;;;;;;;7.45;5.18;;;;;;;8.73;100.00;100887.25;5050482;28;20029;-78
2024/02/16 05:43:19;;;;;;;10.98;5.10;;;;;;;8.90;100.00;100887.69;5049662;28;20151;-78
2024/02/16 05:45:46;;;;;;;9.63;5.20;;;;;;;9.05;100.00;100889.03;5050587;28;20059;-78
2024/02/16 05:48:12;;;;;;;10.68;5.25;;;;;;;9.17;100.00;100890.66;5052971;28;20032;-78
2024/02/16 05:50:37;;;;;;;7.50;4.95;;;;;;;9.22;100.00;100886.78;5053581;28;20024;-79
2024/02/16 05:53:03;;;;;;;13.15;5.63;;;;;;;9.21;100.00;100890.41;5054392;28;20025;-79
2024/02/16 05:55:29;;;;;;;7.28;4.88;;;;;;;9.23;100.00;100885.81;5054780;28;20029;-79
2024/02/16 05:57:54;;;;;;;10.32;4.80;;;;;;;9.23;100.00;100888.47;5053093;28;20101;-80
2024/02/16 06:00:21;;;;;;;8.48;4.28;;;;;;;9.24;100.00;100883.03;5053190;28;20025;-79
2024/02/16 06:02:47;;;;;;;12.18;4.82;;;;;;;9.24;100.00;100884.84;5053999;28;20368;-80
2024/02/16 06:05:12;;;;;;;6.63;4.32;;;;;;;9.18;100.00;100887.06;5054109;28;20025;-80
2024/02/16 06:07:38;;;;;;;8.63;4.80;;;;;;;9.14;100.00;100890.09;5054570;28;20024;-78
2024/02/16 06:10:07;;;;;;;11.32;5.13;;;;;;;9.08;100.00;100891.44;5054206;28;20036;-78
2024/02/16 06:12:32;;;;;;;15.50;4.95;;;;;;;9.06;100.00;100906.66;5054350;28;20029;-78
2024/02/16 06:14:58;;;;;;;10.65;4.78;;;;;;;9.04;100.00;100899.78;5054145;28;20458;-78
2024/02/16 06:17:24;;;;;;;8.02;4.68;;;;;;;9.00;100.00;100894.75;5054553;28;20029;-78
2024/02/16 06:19:49;;;;;;;11.50;5.55;;;;;;;9.05;100.00;100897.00;5053770;28;20451;-78
2024/02/16 06:22:15;;;;;;;10.68;4.38;;;;;;;9.02;100.00;100901.72;5052602;28;20091;-78
2024/02/16 06:24:40;;;;;;;6.78;4.53;;;;;;;9.04;100.00;100905.94;5052829;28;20021;-78
2024/02/16 06:27:08;;;;;;;11.15;5.05;;;;;;;9.06;100.00;100906.66;5052106;28;20386;-78
2024/02/16 06:29:33;;;;;;;7.25;4.50;;;;;;;9.08;100.00;100901.22;5052510;28;20033;-78
2024/02/16 06:31:59;;;;;;;7.65;4.57;;;;;;;9.08;100.00;100915.34;5051752;28;20362;-78
2024/02/16 06:34:24;;;;;;;7.00;4.78;;;;;;;9.08;100.00;100917.97;5054133;28;20025;-78
2024/02/16 06:36:50;;;;;;;8.73;5.07;;;;;;;9.09;100.00;100921.47;5052321;28;20037;-79
2024/02/16 06:39:16;;;;;;;17.10;4.70;;;;;;;9.07;100.00;100916.28;5053918;28;20032;-79
2024/02/16 06:41:45;;;;;;;7.80;4.88;;;;;;;9.10;100.00;100916.03;5053800;28;20078;-79
2024/02/16 06:44:14;;;;;;;10.60;4.78;;;;;;;9.14;100.00;100917.47;5052232;28;20097;-79
2024/02/16 06:46:40;;;;;;;9.93;4.63;;;;;;;9.21;100.00;100928.44;5052275;28;20066;-79
2024/02/16 06:49:06;;;;;;;7.80;4.50;;;;;;;9.25;100.00;100927.19;5053576;28;20059;-78
2024/02/16 06:51:31;;;;;;;8.80;5.63;;;;;;;9.25;100.00;100929.00;5053743;28;20462;-78
2024/02/16 06:53:56;;;;;;;6.93;4.75;;;;;;;9.27;100.00;100932.38;5037374;28;20033;-78
2024/02/16 06:56:22;;;;;;;13.45;5.20;;;;;;;9.25;100.00;100929.84;5052827;28;20045;-79
2024/02/16 06:58:47;;;;;;;10.75;4.72;;;;;;;9.25;100.00;100929.84;5052300;28;20037;-79
2024/02/16 07:01:14;;;;;;;6.28;4.53;;;;;;;9.24;100.00;100929.97;5052098;28;20305;-78
2024/02/16 07:03:40;;;;;;;7.03;4.60;;;;;;;9.21;100.00;100928.44;5051996;28;20028;-76
2024/02/16 07:06:13;;;;;;;7.45;4.65;;;;;;;9.22;100.00;100943.38;5051714;28;20487;-77
2024/02/16 07:08:43;;;;;;;8.52;5.10;;;;;;;9.27;100.00;100945.63;5053348;28;20083;-77
2024/02/16 07:11:11;;;;;;;8.93;5.10;;;;;;;9.33;100.00;100947.78;5052767;28;20025;-77
2024/02/16 07:13:37;;;;;;;7.68;4.97;;;;;;;9.38;100.00;100950.06;5053394;28;20032;-78
2024/02/16 07:16:03;;;;;;;7.43;4.93;;;;;;;9.45;100.00;100954.75;5053064;28;20033;-77
2024/02/16 07:18:30;;;;;;;7.28;4.72;;;;;;;9.53;100.00;100962.88;5052764;28;20036;-79
2024/02/16 07:20:56;;;;;;;6.15;4.30;;;;;;;9.62;100.00;100965.75;5052474;28;20052;-78
2024/02/16 07:23:21;;;;;;;6.85;5.03;;;;;;;9.61;100.00;100969.38;5052642;28;20463;-77
2024/02/16 07:25:46;;;;;;;8.90;5.22;;;;;;;9.67;100.00;100974.16;5052641;28;20323;-77
2024/02/16 07:28:12;;;;;;;9.43;4.72;;;;;;;9.73;100.00;100981.63;5052305;28;20067;-77
2024/02/16 07:30:40;;;;;;;11.55;4.82;;;;;;;9.81;100.00;100989.78;5051055;28;20036;-79
2024/02/16 07:33:09;;;;;;;14.60;5.55;;;;;;;9.96;100.00;100994.78;5052010;28;20061;-80
2024/02/16 07:35:35;;;;;;;9.70;4.30;;;;;;;10.08;100.00;100999.03;5052800;28;20043;-78
2024/02/16 07:38:01;;;;;;;7.18;4.75;;;;;;;10.19;100.00;101000.78;5052500;28;20033;-79
2024/02/16 07:40:27;;;;;;;6.53;4.78;;;;;;;10.30;100.00;101006.00;5052746;28;20102;-78
2024/02/16 07:42:52;;;;;;;14.65;4.47;;;;;;;10.40;100.00;101008.72;5052610;28;20419;-79
2024/02/16 07:45:17;;;;;;;10.95;4.70;;;;;;;10.47;100.00;101009.06;5052405;28;20048;-79
2024/02/16 07:47:43;;;;;;;7.45;4.80;;;;;;;10.52;100.00;101009.47;5052098;28;20029;-79
2024/02/16 07:50:09;;;;;;;6.47;4.35;;;;;;;10.54;100.00;101020.84;5052447;28;20094;-79
2024/02/16 07:52:35;;;;;;;8.25;4.90;;;;;;;10.61;100.00;101029.94;5052346;28;20086;-79
2024/02/16 07:55:01;;;;;;;9.13;4.72;;;;;;;10.67;100.00;101025.91;5050753;28;20060;-80
2024/02/16 07:57:26;;;;;;;6.63;4.38;;;;;;;10.74;100.00;101024.41;5052275;28;20040;-79
2024/02/16 07:59:52;;;;;;;9.13;4.45;;;;;;;10.77;100.00;101032.09;5052109;28;20032;-79
2024/02/16 08:02:17;;;;;;;10.25;4.70;;;;;;;10.82;100.00;101032.53;5050935;28;20051;-78
2024/02/16 08:04:47;;;;;;;7.15;4.70;;;;;;;10.78;100.00;101036.47;5052077;28;20031;-78
2024/02/16 08:07:12;;;;;;;6.75;4.60;;;;;;;10.74;100.00;101027.88;5052075;28;20340;-77
2024/02/16 08:09:37;;;;;;;6.03;4.18;;;;;;;10.67;100.00;101028.56;5052088;28;20075;-75
2024/02/16 08:12:06;;;;;;;7.25;4.22;;;;;;;10.61;100.00;101029.94;5051414;28;20328;-75
2024/02/16 08:14:32;;;;;;;9.55;5.20;;;;;;;10.58;100.00;101030.22;5052550;28;20025;-76
2024/02/16 08:16:58;;;;;;;8.32;5.10;;;;;;;10.58;100.00;101031.09;5034065;28;20386;-74
2024/02/16 08:19:23;;;;;;;8.57;4.78;;;;;;;10.60;100.00;101033.59;5050746;28;20503;-75
2024/02/16 08:21:48;;;;;;;9.13;5.28;;;;;;;10.62;100.00;101044.13;5052193;28;20087;-75
2024/02/16 08:24:14;;;;;;;12.13;5.32;;;;;;;10.62;100.00;101049.44;5051778;28;20459;-75
2024/02/16 08:26:39;;;;;;;9.25;4.85;;;;;;;10.67;100.00;101052.53;5051809;28;20043;-75
2024/02/16 08:29:05;;;;;;;10.20;5.07;;;;;;;10.69;100.00;101069.19;5051833;28;20423;-76
2024/02/16 08:31:30;;;;;;;12.15;5.38;;;;;;;10.67;100.00;101068.50;5051480;28;20036;-75
2024/02/16 08:33:56;;;;;;;11.43;5.65;;;;;;;10.66;100.00;101078.31;5052134;28;20041;-75
2024/02/16 08:36:27;;;;;;;13.73;5.45;;;;;;;10.64;100.00;101069.59;5050987;28;20477;-74
2024/02/16 08:38:53;;;;;;;9.18;4.93;;;;;;;10.61;100.00;101090.31;5051792;28;20116;-75
2024/02/16 08:41:19;;;;;;;8.52;5.20;;;;;;;10.62;100.00;101100.00;5050010;28;20116;-76
2024/02/16 08:43:44;;;;;;;8.27;5.20;;;;;;;10.63;100.00;101102.53;5051502;28;20117;-76
2024/02/16 08:46:10;;;;;;;9.77;4.93;;;;;;;10.66;100.00;101106.72;5050239;28;20112;-76
2024/02/16 08:48:35;;;;;;;13.32;5.38;;;;;;;10.70;100.00;101094.84;5051462;28;20061;-74
2024/02/16 08:51:01;;;;;;;11.35;5.25;;;;;;;10.73;100.00;101106.06;5051066;28;20029;-75
2024/02/16 08:53:26;;;;;;;11.10;4.82;;;;;;;10.75;100.00;101108.59;5050707;28;20139;-76
2024/02/16 08:55:51;;;;;;;14.95;5.40;;;;;;;10.76;100.00;101113.78;5050621;28;20128;-74
2024/02/16 08:58:18;;;;;;;10.63;5.40;;;;;;;10.78;100.00;101124.28;5049009;28;20067;-75
2024/02/16 09:00:44;;;;;;;9.13;6.38;;;;;;;10.76;100.00;101129.75;5051040;28;20118;-75
2024/02/16 09:03:09;;;;;;;18.63;5.60;;;;;;;10.72;100.00;101141.63;5050673;28;20060;-77
2024/02/16 09:05:34;;;;;;;13.02;6.10;;;;;;;10.69;100.00;101133.91;5050431;28;20061;-77
2024/02/16 09:08:00;;;;;;;17.40;6.65;;;;;;;10.64;100.00;101140.59;5049027;28;20036;-75
2024/02/16 09:10:25;;;;;;;16.05;7.10;;;;;;;10.64;100.00;101149.41;5048914;28;20422;-77
2024/02/16 09:12:51;;;;;;;15.13;6.35;;;;;;;10.62;100.00;101150.56;5050850;28;20040;-77
2024/02/16 09:15:17;;;;;;;17.48;7.63;;;;;;;10.56;100.00;101158.06;5049007;28;20033;-77
2024/02/16 09:17:43;;;;;;;14.73;7.88;;;;;;;10.53;100.00;101162.81;5050446;28;20361;-75
2024/02/16 09:20:10;;;;;;;18.58;8.45;;;;;;;10.51;100.00;101162.09;5050690;28;20033;-75
2024/02/16 09:22:36;;;;;;;25.35;9.57;;;;;;;10.46;100.00;101166.97;5049725;28;20437;-75
2024/02/16 09:25:02;;;;;;;29.48;11.10;;;;;;;10.39;100.00;101180.78;5049228;28;20125;-77
2024/02/16 09:27:28;;;;;;;25.55;10.48;;;;;;;10.33;100.00;101185.75;5050282;28;20025;-77
2024/02/16 09:29:53;;;;;;;27.65;10.77;;;;;;;10.29;100.00;101197.63;5050343;28;20044;-78
2024/02/16 09:32:19;;;;;;;28.58;11.18;;;;;;;10.17;100.00;101203.00;5050227;28;20052;-80
2024/02/16 09:34:44;;;;;;;32.88;11.95;;;;;;;10.08;100.00;101209.06;5050369;28;20033;-81
2024/02/16 09:37:11;;;;;;;32.80;12.15;;;;;;;10.02;100.00;101213.06;5049455;28;20041;-80
2024/02/16 09:39:37;;;;;;;35.85;11.95;;;;;;;9.96;100.00;101223.38;5050439;28;20044;-77
2024/02/16 09:42:02;;;;;;;36.97;12.68;;;;;;;9.84;100.00;101233.19;5050407;28;20469;-74
2024/02/16 09:44:28;;;;;;;35.22;12.98;;;;;;;9.75;100.00;101244.56;5049175;28;20026;-78
2024/02/16 09:46:54;;;;;;;36.20;12.80;;;;;;;9.67;100.00;101251.34;5050203;28;20471;-78
2024/02/16 09:49:20;;;;;;;34.08;12.48;;;;;;;9.59;100.00;101250.28;5050152;28;20037;-79
2024/02/16 09:51:45;;;;;;;29.23;11.65;;;;;;;9.52;100.00;101265.84;5050257;28;20047;-79
2024/02/16 09:54:12;;;;;;;35.42;12.60;;;;;;;9.45;100.00;101270.81;5050234;28;20029;-79
2024/02/16 09:56:37;;;;;;;27.50;11.65;;;;;;;9.40;100.00;101277.44;5050514;28;20051;-79
2024/02/16 09:59:03;;;;;;;31.65;11.48;;;;;;;9.33;100.00;101277.94;5050671;28;20029;-84
2024/02/16 10:01:29;;;;;;;26.30;10.40;;;;;;;9.31;100.00;101282.50;5050499;28;20056;-80
2024/02/16 10:04:05;;;;;;;27.85;9.80;;;;;;;9.26;100.00;101284.69;5050622;28;20082;-78
2024/02/16 10:06:31;;;;;;;24.00;9.90;;;;;;;9.24;100.00;101289.28;5050442;28;20128;-78
2024/02/16 10:09:00;;;;;;;21.42;8.77;;;;;;;9.21;100.00;101300.13;5050840;28;20393;-78
2024/02/16 10:11:29;;;;;;;19.92;9.30;;;;;;;9.20;100.00;101305.56;5050718;28;20040;-77
2024/02/16 10:13:55;;;;;;;19.98;8.88;;;;;;;9.18;100.00;101305.66;5050430;28;20079;-78
2024/02/16 10:16:20;;;;;;;20.60;9.27;;;;;;;9.18;100.00;101306.53;5050356;28;20033;-78
2024/02/16 10:18:46;;;;;;;22.10;9.10;;;;;;;9.20;100.00;101316.19;5048585;28;20037;-77
2024/02/16 10:21:11;;;;;;;18.33;8.10;;;;;;;9.21;100.00;101324.03;5050722;28;20357;-78
2024/02/16 10:23:36;;;;;;;20.33;8.48;;;;;;;9.21;100.00;101332.00;5050738;28;20032;-77
2024/02/16 10:26:02;;;;;;;15.70;8.15;;;;;;;9.20;100.00;101340.91;5050670;28;20332;-77
2024/02/16 10:28:30;;;;;;;15.07;8.27;;;;;;;9.16;100.00;101353.56;5050645;28;20037;-76
2024/02/16 10:31:01;;;;;;;18.35;7.88;;;;;;;9.11;100.00;101366.34;5050765;28;20029;-76
2024/02/16 10:33:31;;;;;;;18.63;8.53;;;;;;;9.06;100.00;101368.53;5051192;28;20106;-78
2024/02/16 10:35:58;;;;;;;22.73;9.70;;;;;;;9.06;100.00;101380.94;5054626;28;20279;-77
2024/02/16 10:38:25;;;;;;;16.85;8.18;;;;;;;9.05;100.00;101373.94;5054040;28;20024;-79
2024/02/16 10:40:51;;;;;;;17.38;8.60;;;;;;;9.05;100.00;101372.13;5052644;28;20055;-77
2024/02/16 10:43:17;;;;;;;14.40;8.02;;;;;;;9.07;100.00;101386.13;5054085;28;20127;-78
2024/02/16 10:45:44;;;;;;;16.30;7.90;;;;;;;9.06;100.00;101380.94;5053550;28;20025;-77
2024/02/16 10:48:10;;;;;;;19.73;8.38;;;;;;;9.06;100.00;101388.91;5054071;28;20037;-79
2024/02/16 10:50:37;;;;;;;16.27;8.13;;;;;;;9.11;100.00;101400.03;5052435;28;20057;-78
2024/02/16 10:53:28;;;;;;;19.58;8.10;;;;;;;9.12;100.00;101404.34;5054236;28;20040;-77
2024/02/16 10:55:58;;;;;;;14.05;7.72;;;;;;;9.12;100.00;101415.84;5048694;28;20052;-77
2024/02/16 10:58:23;;;;;;;11.68;6.78;;;;;;;9.09;100.00;101424.03;5054145;28;20067;-78
2024/02/16 11:00:49;;;;;;;12.93;7.00;;;;;;;9.04;100.00;101420.03;5052231;28;20052;-78
2024/02/16 11:03:17;;;;;;;14.50;6.40;;;;;;;9.02;100.00;101430.75;5052389;28;20420;-77
2024/02/16 11:05:42;;;;;;;11.93;5.43;;;;;;;8.97;100.00;101443.50;5053181;28;20380;-77
2024/02/16 11:08:15;;;;;;;15.25;6.00;;;;;;;8.94;100.00;101444.63;5053411;28;20057;-76
2024/02/16 11:10:41;;;;;;;8.27;5.70;;;;;;;8.92;100.00;101453.63;5053441;28;20110;-77
2024/02/16 11:13:08;;;;;;;12.18;6.05;;;;;;;8.86;100.00;101462.88;5053148;28;20041;-79
2024/02/16 11:15:36;;;;;;;12.25;6.05;;;;;;;8.86;100.00;101464.72;5053422;28;20040;-78